Time;durP1;ratioP1;P1;durP2;ratioP2;P2;SDS_P1;SDS_P2;PMS_P1;PMS_P2;Temp;Humidity;BMP_temperature;BMP_pressure;BME280_temperature;BME280_humidity;BME280_pressure;Samples;Min_cycle;Max_cycle;Signal;HPM_P1;HPM_P2
2022/06/11 00:01:48;;;;;;;4.28;2.30;;;;;;;17.98;64.54;99392.22;5000201;28;20112;-78
2022/06/11 00:04:24;;;;;;;4.85;2.30;;;;;;;18.01;64.46;99392.75;5004710;28;20037;-78
2022/06/11 00:06:53;;;;;;;5.95;2.60;;;;;;;18.07;64.51;99389.72;5005725;28;20034;-78
2022/06/11 00:09:20;;;;;;;4.82;2.40;;;;;;;17.94;64.63;99393.06;5008898;28;20750;-78
2022/06/11 00:11:46;;;;;;;6.72;2.10;;;;;;;17.95;65.20;99390.09;5006458;28;20406;-78
2022/06/11 00:14:12;;;;;;;3.83;2.40;;;;;;;18.02;64.52;99395.16;5001544;28;20414;-78
2022/06/11 00:16:39;;;;;;;8.25;2.53;;;;;;;17.82;65.59;99389.94;5005444;28;20034;-78
2022/06/11 00:19:06;;;;;;;4.70;2.70;;;;;;;18.02;64.31;99391.69;5009079;28;20410;-78
2022/06/11 00:21:35;;;;;;;4.05;2.47;;;;;;;18.04;64.71;99398.41;5005739;28;20038;-78
2022/06/11 00:24:01;;;;;;;3.80;2.20;;;;;;;18.04;64.79;99400.31;5007798;28;20088;-78
2022/06/11 00:26:27;;;;;;;6.90;2.40;;;;;;;17.78;65.26;99387.00;5006433;28;20493;-78
2022/06/11 00:28:53;;;;;;;6.10;2.78;;;;;;;17.89;65.41;99391.22;5008450;28;20078;-78
2022/06/11 00:31:19;;;;;;;4.28;2.70;;;;;;;18.04;64.80;99395.72;4992254;28;20557;-78
2022/06/11 00:33:44;;;;;;;10.18;3.45;;;;;;;18.02;64.52;99392.47;5025085;28;20061;-78
2022/06/11 00:36:11;;;;;;;4.93;3.28;;;;;;;17.93;64.25;99377.97;4991002;28;20033;-78
2022/06/11 00:38:39;;;;;;;5.20;2.53;;;;;;;17.94;65.14;99396.59;5018479;28;20030;-78
2022/06/11 00:41:06;;;;;;;4.55;2.55;;;;;;;18.06;64.98;99395.41;5002974;28;20470;-78
2022/06/11 00:43:32;;;;;;;5.40;2.40;;;;;;;18.03;64.67;99391.38;5007582;28;20053;-78
2022/06/11 00:45:57;;;;;;;8.75;2.70;;;;;;;18.02;64.74;99394.38;5007650;28;20450;-78
2022/06/11 00:48:30;;;;;;;3.42;2.40;;;;;;;17.86;65.52;99396.41;5007018;28;20061;-78
2022/06/11 00:50:58;;;;;;;7.25;2.67;;;;;;;17.82;65.53;99390.72;5006339;28;20029;-78
2022/06/11 00:53:36;;;;;;;4.65;2.50;;;;;;;17.92;65.18;99390.66;5005050;28;20026;-78
2022/06/11 00:56:05;;;;;;;3.90;2.28;;;;;;;17.96;64.49;99386.31;5021133;28;20444;-78
2022/06/11 00:58:38;;;;;;;6.28;2.75;;;;;;;18.01;64.68;99384.66;5006024;28;20081;-78
2022/06/11 01:01:05;;;;;;;3.75;2.72;;;;;;;17.97;64.39;99379.81;5006317;28;20513;-78
2022/06/11 01:03:37;;;;;;;3.70;2.83;;;;;;;18.00;64.82;99383.06;5005861;28;20091;-78
2022/06/11 01:06:08;;;;;;;3.17;2.42;;;;;;;17.93;64.74;99384.16;5007968;28;20096;-78
2022/06/11 01:08:52;;;;;;;4.55;2.50;;;;;;;18.02;64.85;99381.66;5001796;28;20449;-78
2022/06/11 01:11:38;;;;;;;3.45;2.80;;;;;;;18.01;64.16;99365.75;5001814;28;20079;-78
2022/06/11 01:14:34;;;;;;;4.10;3.13;;;;;;;17.98;65.09;99373.31;5001558;28;20029;-78
2022/06/11 01:17:15;;;;;;;5.32;2.60;;;;;;;18.02;64.78;99372.78;5019311;28;20038;-78
2022/06/11 01:20:03;;;;;;;3.72;2.42;;;;;;;17.96;64.99;99375.50;5005019;28;20060;-78
2022/06/11 01:23:06;;;;;;;4.13;2.50;;;;;;;18.06;64.96;99368.41;5017781;28;20030;-78
2022/06/11 01:25:59;;;;;;;3.83;2.50;;;;;;;17.97;64.69;99368.22;5006905;28;20026;-78
2022/06/11 01:28:40;;;;;;;4.20;2.35;;;;;;;17.97;65.10;99370.91;5006062;28;20030;-78
2022/06/11 01:31:05;;;;;;;5.22;2.65;;;;;;;17.99;64.82;99368.72;5007595;28;20026;-78
2022/06/11 01:33:47;;;;;;;4.18;2.47;;;;;;;17.96;65.15;99358.47;5008689;28;20030;-78
2022/06/11 01:36:21;;;;;;;5.63;2.90;;;;;;;17.89;64.98;99352.59;5007601;28;20092;-78
2022/06/11 01:38:55;;;;;;;5.47;2.40;;;;;;;17.94;65.32;99366.88;5004901;28;20128;-78
2022/06/11 01:41:46;;;;;;;9.50;2.40;;;;;;;17.98;64.86;99362.50;5004302;28;20050;-78
2022/06/11 01:44:17;;;;;;;5.97;2.58;;;;;;;17.94;65.28;99361.47;5008660;28;20058;-78
2022/06/11 01:46:46;;;;;;;4.40;2.42;;;;;;;17.83;64.97;99332.13;5007827;28;20038;-78
2022/06/11 01:49:21;;;;;;;10.07;2.88;;;;;;;17.93;65.44;99350.97;4997622;28;20088;-78
2022/06/11 01:51:52;;;;;;;4.45;2.78;;;;;;;17.94;65.04;99350.69;5018564;28;20034;-78
2022/06/11 01:54:24;;;;;;;6.13;2.70;;;;;;;17.92;65.44;99346.63;5004213;28;20053;-79
2022/06/11 01:57:02;;;;;;;6.07;2.70;;;;;;;17.82;65.12;99341.34;5002995;28;20037;-78
2022/06/11 01:59:49;;;;;;;5.40;3.05;;;;;;;17.86;65.26;99345.09;5024063;28;20151;-78
2022/06/11 02:02:29;;;;;;;3.67;2.45;;;;;;;17.91;65.32;99347.72;5010343;28;20030;-78
2022/06/11 02:05:04;;;;;;;5.93;2.28;;;;;;;17.88;65.34;99338.31;5010608;28;20029;-78
2022/06/11 02:07:50;;;;;;;6.53;3.00;;;;;;;17.87;65.12;99331.28;5010456;28;20040;-78
2022/06/11 02:10:35;;;;;;;2.83;2.33;;;;;;;17.90;65.18;99336.13;5008226;28;20080;-78
2022/06/11 02:13:03;;;;;;;4.97;2.57;;;;;;;17.89;65.02;99339.91;5002546;28;20038;-78
2022/06/11 02:15:37;;;;;;;7.18;3.10;;;;;;;17.91;65.08;99340.44;5008761;28;20335;-78
2022/06/11 02:18:11;;;;;;;4.40;2.67;;;;;;;17.85;65.42;99343.47;5010693;28;20115;-78
2022/06/11 02:21:00;;;;;;;7.43;3.38;;;;;;;17.86;65.48;99340.50;4989828;28;20116;-78
2022/06/11 02:23:32;;;;;;;6.65;3.42;;;;;;;17.92;64.92;99335.84;5003466;28;20026;-78
2022/06/11 02:26:02;;;;;;;7.72;3.17;;;;;;;17.82;65.31;99342.13;5010037;28;20155;-78
2022/06/11 02:28:33;;;;;;;7.30;2.60;;;;;;;17.73;65.63;99341.16;5009791;28;20021;-78
2022/06/11 02:31:04;;;;;;;5.32;3.00;;;;;;;17.77;65.53;99328.69;5011972;28;20033;-78
2022/06/11 02:33:33;;;;;;;4.70;3.00;;;;;;;17.69;65.64;99340.06;5003316;28;20099;-78
2022/06/11 02:36:09;;;;;;;7.70;3.78;;;;;;;17.53;67.28;99338.59;5007892;28;20131;-78
2022/06/11 02:38:35;;;;;;;5.28;2.58;;;;;;;17.67;65.67;99336.06;5004887;28;20096;-78
2022/06/11 02:41:06;;;;;;;9.93;3.40;;;;;;;17.68;66.42;99346.56;5008502;28;20060;-78
2022/06/11 02:43:32;;;;;;;3.75;3.17;;;;;;;17.63;66.21;99348.50;5011184;28;20496;-78
2022/06/11 02:45:58;;;;;;;7.95;3.47;;;;;;;17.53;66.04;99327.00;5005123;28;20033;-78
2022/06/11 02:48:24;;;;;;;4.15;2.75;;;;;;;17.73;66.11;99338.44;5006948;28;20390;-78
2022/06/11 02:50:49;;;;;;;4.90;2.80;;;;;;;17.68;66.03;99337.66;5007831;28;20415;-78
2022/06/11 02:53:17;;;;;;;7.30;2.90;;;;;;;17.74;66.28;99347.31;5022453;28;20018;-78
2022/06/11 02:55:44;;;;;;;5.20;3.33;;;;;;;17.55;67.01;99341.81;5005942;28;20461;-78
2022/06/11 02:58:11;;;;;;;5.15;2.83;;;;;;;17.67;66.03;99344.94;5008064;28;20088;-78
2022/06/11 03:00:41;;;;;;;5.32;2.85;;;;;;;17.75;65.84;99349.78;5018016;28;20060;-78
2022/06/11 03:03:07;;;;;;;5.82;3.60;;;;;;;17.77;66.07;99355.69;5005418;28;20049;-78
2022/06/11 03:05:34;;;;;;;4.85;3.45;;;;;;;17.84;65.39;99347.25;5006261;28;20449;-78
2022/06/11 03:08:00;;;;;;;3.17;2.78;;;;;;;17.72;65.96;99347.63;5007556;28;20089;-78
2022/06/11 03:10:27;;;;;;;6.18;3.15;;;;;;;17.74;65.87;99339.22;5006905;28;20044;-78
2022/06/11 03:12:53;;;;;;;7.07;3.47;;;;;;;17.58;66.52;99330.44;5008362;28;20409;-78
2022/06/11 03:15:20;;;;;;;8.27;2.92;;;;;;;17.69;65.86;99353.56;5008153;28;20034;-78
2022/06/11 03:17:47;;;;;;;6.07;2.80;;;;;;;17.73;66.09;99354.66;5022424;28;20021;-78
2022/06/11 03:20:16;;;;;;;8.63;3.75;;;;;;;17.72;65.82;99358.41;5008313;28;20025;-78
2022/06/11 03:22:42;;;;;;;6.38;3.70;;;;;;;17.63;66.29;99349.31;5024418;28;20036;-78
2022/06/11 03:25:09;;;;;;;7.78;2.72;;;;;;;17.67;66.29;99360.38;5006570;28;20038;-78
2022/06/11 03:27:36;;;;;;;3.78;2.53;;;;;;;17.66;66.36;99358.75;5004352;28;20038;-78
2022/06/11 03:30:01;;;;;;;6.60;3.42;;;;;;;17.69;66.11;99358.97;5005802;28;20030;-78
2022/06/11 03:32:27;;;;;;;8.55;3.53;;;;;;;17.47;68.80;99369.38;4992559;28;20047;-78
2022/06/11 03:34:52;;;;;;;5.38;3.63;;;;;;;16.84;70.47;99351.41;5009205;28;20381;-78
2022/06/11 03:37:19;;;;;;;5.68;3.15;;;;;;;17.04;68.87;99348.59;4991677;28;20034;-78
2022/06/11 03:39:44;;;;;;;7.93;3.30;;;;;;;17.08;70.24;99368.53;5009510;28;20087;-78
2022/06/11 03:42:11;;;;;;;5.20;3.30;;;;;;;16.95;71.25;99369.16;5020224;28;20362;-78
2022/06/11 03:44:36;;;;;;;4.95;3.22;;;;;;;17.16;68.06;99357.16;4991920;28;20061;-78
2022/06/11 03:47:03;;;;;;;3.92;2.95;;;;;;;17.55;67.29;99374.22;5005248;28;20144;-78
2022/06/11 03:49:29;;;;;;;5.95;3.50;;;;;;;17.43;69.57;99371.00;5008917;28;20038;-78
2022/06/11 03:51:54;;;;;;;7.28;3.47;;;;;;;17.59;67.54;99375.25;5006624;28;20038;-78
2022/06/11 03:54:20;;;;;;;5.65;3.10;;;;;;;17.84;66.73;99372.34;5007704;28;20040;-78
2022/06/11 03:56:48;;;;;;;5.88;2.88;;;;;;;17.50;67.42;99365.28;5004213;28;20065;-78
2022/06/11 03:59:14;;;;;;;11.65;3.75;;;;;;;17.38;68.51;99368.38;4991943;28;20534;-78
2022/06/11 04:01:41;;;;;;;6.38;4.05;;;;;;;17.04;70.01;99362.06;5004511;28;20036;-78
2022/06/11 04:04:10;;;;;;;6.68;3.92;;;;;;;17.04;69.51;99386.34;5025065;28;20397;-78
2022/06/11 04:06:40;;;;;;;5.55;3.40;;;;;;;17.34;68.19;99380.81;5006075;28;20065;-78
2022/06/11 04:09:09;;;;;;;4.95;3.35;;;;;;;17.25;70.53;99380.56;5003847;28;20038;-78
2022/06/11 04:11:35;;;;;;;6.57;3.33;;;;;;;17.47;67.76;99371.28;5023912;28;20441;-78
2022/06/11 04:14:01;;;;;;;5.60;3.17;;;;;;;17.67;67.63;99390.06;5006866;28;20125;-78
2022/06/11 04:16:30;;;;;;;6.38;3.30;;;;;;;17.88;66.61;99396.91;5005706;28;20040;-78
2022/06/11 04:19:01;;;;;;;5.65;3.85;;;;;;;17.43;69.87;99383.72;5023466;28;20030;-78
2022/06/11 04:21:29;;;;;;;6.18;4.00;;;;;;;17.44;70.22;99393.41;5007484;28;20038;-78
2022/06/11 04:23:56;;;;;;;8.30;4.05;;;;;;;17.36;69.72;99381.34;5008376;28;20386;-78
2022/06/11 04:26:27;;;;;;;5.43;3.15;;;;;;;17.45;68.77;99390.44;5004103;28;20029;-78
2022/06/11 04:28:53;;;;;;;6.20;3.28;;;;;;;17.82;67.05;99393.44;5006563;28;20030;-78
2022/06/11 04:31:19;;;;;;;5.13;3.20;;;;;;;17.68;67.56;99392.47;5005823;28;20049;-78
2022/06/11 04:33:47;;;;;;;3.97;2.80;;;;;;;17.76;67.25;99397.28;5010284;28;20034;-78
2022/06/11 04:36:16;;;;;;;8.38;3.78;;;;;;;17.59;70.16;99377.16;5011939;28;20030;-78
2022/06/11 04:38:41;;;;;;;4.82;3.60;;;;;;;17.67;69.14;99393.53;4972199;28;20037;-78
2022/06/11 04:41:07;;;;;;;5.97;3.30;;;;;;;17.69;68.54;99385.97;5003374;28;20040;-78
2022/06/11 04:43:34;;;;;;;4.68;3.33;;;;;;;17.63;69.82;99389.81;4991186;28;20409;-78
2022/06/11 04:45:59;;;;;;;6.53;2.80;;;;;;;17.72;67.91;99374.63;5007173;28;20410;-78
2022/06/11 04:48:25;;;;;;;4.78;3.08;;;;;;;17.96;67.52;99390.91;5003020;28;20029;-78
2022/06/11 04:50:50;;;;;;;5.95;3.00;;;;;;;17.97;67.16;99385.19;4988104;28;20040;-78
2022/06/11 04:53:15;;;;;;;5.47;3.17;;;;;;;18.07;66.86;99392.44;5007854;28;20048;-78
2022/06/11 04:55:41;;;;;;;4.25;3.30;;;;;;;18.08;67.06;99387.84;5006038;28;20481;-78
2022/06/11 04:58:07;;;;;;;4.13;3.15;;;;;;;18.06;67.22;99392.72;5005919;28;20363;-78
2022/06/11 05:00:34;;;;;;;5.03;3.55;;;;;;;18.16;67.07;99396.13;5004485;28;20494;-78
2022/06/11 05:03:00;;;;;;;5.65;2.97;;;;;;;18.08;67.33;99393.25;5006707;28;20113;-78
2022/06/11 05:05:26;;;;;;;6.15;2.90;;;;;;;18.12;67.52;99396.97;4999282;28;20113;-78
2022/06/11 05:07:52;;;;;;;6.43;3.15;;;;;;;18.14;67.04;99387.50;4986822;28;20116;-78
2022/06/11 05:10:20;;;;;;;6.20;3.30;;;;;;;18.22;67.13;99396.88;5005450;28;20030;-78
2022/06/11 05:12:46;;;;;;;3.75;3.20;;;;;;;18.14;67.09;99390.22;4989734;28;20036;-78
2022/06/11 05:15:12;;;;;;;6.00;3.40;;;;;;;18.23;67.25;99396.63;5007055;28;20038;-78
2022/06/11 05:17:37;;;;;;;4.60;3.30;;;;;;;18.30;66.84;99404.38;5006269;28;20061;-78
2022/06/11 05:20:04;;;;;;;7.03;3.47;;;;;;;18.15;68.59;99408.00;5003608;28;20065;-78
2022/06/11 05:22:30;;;;;;;5.18;2.90;;;;;;;18.02;68.40;99397.88;4999885;28;20422;-78
2022/06/11 05:24:55;;;;;;;5.43;3.20;;;;;;;18.22;67.24;99413.09;5020308;28;20068;-78
2022/06/11 05:27:24;;;;;;;4.93;3.22;;;;;;;18.32;67.36;99411.13;5006129;28;20048;-78
2022/06/11 05:29:53;;;;;;;6.20;3.40;;;;;;;18.33;67.18;99406.50;5004457;28;20041;-78
2022/06/11 05:32:21;;;;;;;6.72;3.10;;;;;;;18.41;66.88;99408.59;5005922;28;20026;-78
2022/06/11 05:34:47;;;;;;;4.43;2.67;;;;;;;18.41;66.64;99414.78;5011495;28;20482;-78
2022/06/11 05:37:13;;;;;;;9.38;3.33;;;;;;;18.32;67.34;99410.31;5008958;28;20133;-78
2022/06/11 05:39:41;;;;;;;5.05;2.78;;;;;;;18.39;68.10;99421.59;5009342;28;20407;-78
2022/06/11 05:42:06;;;;;;;11.60;3.50;;;;;;;18.26;70.73;99423.03;5008575;28;20080;-78
2022/06/11 05:44:32;;;;;;;6.85;3.25;;;;;;;18.51;66.54;99420.16;5010045;28;20478;-78
2022/06/11 05:46:57;;;;;;;5.97;3.08;;;;;;;18.54;66.63;99413.38;5008877;28;20076;-78
2022/06/11 05:49:27;;;;;;;6.03;3.30;;;;;;;18.54;70.03;99419.56;4991107;28;20026;-78
2022/06/11 05:51:58;;;;;;;7.18;3.70;;;;;;;18.64;67.33;99415.94;5005384;28;20203;-78
2022/06/11 05:54:27;;;;;;;7.97;3.67;;;;;;;18.52;70.10;99413.63;5004443;28;20033;-78
2022/06/11 05:56:53;;;;;;;4.97;3.45;;;;;;;18.51;69.86;99427.44;5005783;28;20646;-79
2022/06/11 05:59:23;;;;;;;8.82;4.65;;;;;;;18.23;71.71;99418.22;5002353;28;20383;-78
2022/06/11 06:01:49;;;;;;;8.73;3.80;;;;;;;18.36;72.48;99432.97;5006897;28;20105;-78
2022/06/11 06:04:16;;;;;;;8.77;3.53;;;;;;;18.60;71.56;99423.84;5013144;28;20112;-78
2022/06/11 06:06:41;;;;;;;7.07;3.95;;;;;;;18.48;71.58;99425.31;5005703;28;20104;-78
2022/06/11 06:09:07;;;;;;;12.80;4.68;;;;;;;18.38;72.00;99412.69;5012566;28;20122;-78
2022/06/11 06:11:33;;;;;;;7.50;3.78;;;;;;;18.10;70.85;99408.09;5009479;28;20034;-78
2022/06/11 06:13:59;;;;;;;7.75;3.38;;;;;;;18.85;68.52;99428.16;5007803;28;20481;-78
2022/06/11 06:16:29;;;;;;;8.88;4.20;;;;;;;18.82;70.42;99444.97;4991473;28;20022;-78
2022/06/11 06:18:55;;;;;;;10.77;4.30;;;;;;;18.58;70.86;99439.56;5010372;28;20049;-78
2022/06/11 06:21:24;;;;;;;3.92;3.50;;;;;;;18.74;72.21;99442.88;5006768;28;20022;-78
2022/06/11 06:23:50;;;;;;;5.97;4.15;;;;;;;18.32;71.56;99429.22;5025446;28;20389;-78
2022/06/11 06:26:15;;;;;;;5.15;3.03;;;;;;;18.46;70.12;99431.00;5007586;28;20044;-78
2022/06/11 06:28:41;;;;;;;9.60;3.60;;;;;;;19.15;67.74;99451.34;4973929;28;20089;-78
2022/06/11 06:31:08;;;;;;;5.57;2.83;;;;;;;19.28;67.26;99440.63;4999381;28;20617;-78
2022/06/11 06:33:34;;;;;;;6.93;2.78;;;;;;;19.30;66.96;99443.84;5012700;28;20021;-78
2022/06/11 06:36:02;;;;;;;5.55;3.42;;;;;;;19.33;66.83;99447.88;4998350;28;20040;-78
2022/06/11 06:38:28;;;;;;;5.28;2.58;;;;;;;19.29;66.58;99425.97;5008482;28;20167;-78
2022/06/11 06:40:54;;;;;;;3.70;2.65;;;;;;;19.38;66.19;99428.88;5010052;28;20112;-78
2022/06/11 06:43:20;;;;;;;6.88;3.33;;;;;;;19.43;65.97;99434.22;5007451;28;20482;-78
2022/06/11 06:45:47;;;;;;;5.60;3.15;;;;;;;19.37;66.14;99438.88;5005830;28;20389;-78
2022/06/11 06:48:12;;;;;;;6.55;3.47;;;;;;;19.34;66.08;99431.38;5009932;28;20026;-78
2022/06/11 06:50:38;;;;;;;5.45;3.15;;;;;;;19.41;66.46;99439.94;4994618;28;20040;-78
2022/06/11 06:53:04;;;;;;;13.05;3.28;;;;;;;19.48;66.33;99457.72;5007777;28;20026;-78
2022/06/11 06:55:30;;;;;;;6.82;3.08;;;;;;;19.54;65.58;99440.31;5008187;28;20033;-78
2022/06/11 06:57:56;;;;;;;7.35;3.17;;;;;;;19.68;65.84;99450.09;5008472;28;20030;-78
2022/06/11 07:00:21;;;;;;;5.40;2.97;;;;;;;19.65;65.56;99448.00;4984722;28;20085;-78
2022/06/11 07:02:47;;;;;;;5.95;3.10;;;;;;;19.57;67.33;99439.72;4986971;28;20036;-78
2022/06/11 07:05:14;;;;;;;7.93;3.25;;;;;;;19.73;67.45;99446.53;5007243;28;20034;-78
2022/06/11 07:07:40;;;;;;;7.03;3.03;;;;;;;19.86;65.15;99452.00;5026299;28;20030;-78
2022/06/11 07:10:07;;;;;;;5.43;2.92;;;;;;;19.83;64.78;99443.69;5021914;28;20378;-79
2022/06/11 07:12:33;;;;;;;6.57;2.65;;;;;;;19.89;65.02;99439.78;5005680;28;20033;-79
2022/06/11 07:14:59;;;;;;;6.53;2.80;;;;;;;20.00;64.52;99441.25;5009048;28;20127;-78
2022/06/11 07:17:28;;;;;;;5.95;2.83;;;;;;;20.00;64.77;99435.81;4991258;28;20041;-79
2022/06/11 07:20:01;;;;;;;8.10;3.10;;;;;;;20.12;64.50;99453.22;5001944;28;20065;-78
2022/06/11 07:22:32;;;;;;;9.48;3.20;;;;;;;20.28;65.53;99453.00;5023215;28;20049;-79
2022/06/11 07:25:00;;;;;;;6.30;3.42;;;;;;;20.32;64.25;99446.69;5019375;28;20754;-79
2022/06/11 07:27:31;;;;;;;7.93;3.45;;;;;;;20.36;63.89;99442.28;5006936;28;20038;-78
2022/06/11 07:30:18;;;;;;;7.20;2.85;;;;;;;20.39;64.05;99455.25;5003405;28;20037;-78
2022/06/11 07:32:48;;;;;;;4.22;2.67;;;;;;;20.44;64.19;99440.81;5003257;28;20569;-78
2022/06/11 07:35:16;;;;;;;5.57;2.58;;;;;;;20.48;63.62;99450.75;5003913;28;20121;-78
2022/06/11 07:37:43;;;;;;;6.78;2.72;;;;;;;20.36;63.84;99457.75;5006360;28;20033;-78
2022/06/11 07:40:10;;;;;;;11.60;3.90;;;;;;;20.33;64.11;99461.06;5008858;28;20520;-78
2022/06/11 07:42:36;;;;;;;7.05;2.92;;;;;;;20.17;64.27;99457.75;5008008;28;20501;-78
2022/06/11 07:45:01;;;;;;;24.55;3.58;;;;;;;20.03;65.83;99449.56;5005713;28;20030;-78
2022/06/11 07:50:13;;;;;;;15.48;3.25;;;;;;;19.59;65.51;99446.47;5002012;28;20040;-78
2022/06/11 07:52:40;;;;;;;10.43;3.38;;;;;;;19.66;65.28;99456.94;5005515;28;20038;-78
2022/06/11 07:55:06;;;;;;;4.82;2.80;;;;;;;19.66;66.58;99459.66;5003878;28;20531;-78
2022/06/11 07:57:32;;;;;;;7.00;2.92;;;;;;;19.69;67.46;99449.03;5000877;28;20029;-79
2022/06/11 07:59:58;;;;;;;5.55;2.67;;;;;;;19.81;65.48;99459.44;4998068;28;20030;-79
2022/06/11 08:02:25;;;;;;;6.90;3.55;;;;;;;19.77;65.69;99471.91;5010496;28;20035;-78
2022/06/11 08:04:51;;;;;;;5.20;2.95;;;;;;;19.78;65.63;99465.41;5007301;28;20465;-78
2022/06/11 08:07:16;;;;;;;5.40;3.20;;;;;;;19.82;65.53;99461.03;5008146;28;20088;-77
2022/06/11 08:09:42;;;;;;;7.90;3.05;;;;;;;19.94;65.19;99472.22;5004458;28;20588;-78
2022/06/11 08:12:07;;;;;;;6.53;3.20;;;;;;;20.13;65.37;99479.25;5002787;28;20045;-78
2022/06/11 08:14:33;;;;;;;7.25;3.10;;;;;;;20.17;65.43;99479.44;5003588;28;20041;-78
2022/06/11 08:16:58;;;;;;;7.95;2.70;;;;;;;20.14;65.29;99474.59;5007251;28;20030;-78
2022/06/11 08:19:23;;;;;;;6.72;3.10;;;;;;;20.05;65.52;99477.19;4988130;28;20470;-78
2022/06/11 08:21:49;;;;;;;4.40;2.65;;;;;;;20.06;65.48;99470.69;5004948;28;20026;-77
2022/06/11 08:24:14;;;;;;;6.75;3.00;;;;;;;20.06;66.70;99467.16;4988475;28;20512;-77
2022/06/11 08:26:40;;;;;;;6.75;2.78;;;;;;;20.17;64.65;99463.19;5002616;28;20430;-78
2022/06/11 08:29:05;;;;;;;7.95;3.00;;;;;;;20.37;64.43;99470.22;4986961;28;20034;-78
2022/06/11 08:31:30;;;;;;;6.28;2.35;;;;;;;20.39;64.41;99476.94;4983761;28;20120;-78
2022/06/11 08:33:56;;;;;;;3.28;2.50;;;;;;;20.37;64.31;99475.63;5000060;28;20030;-77
2022/06/11 08:36:21;;;;;;;3.60;2.45;;;;;;;20.25;64.85;99470.66;5006550;28;20026;-78
2022/06/11 08:38:47;;;;;;;6.75;2.80;;;;;;;20.36;64.19;99461.25;5003604;28;20434;-78
2022/06/11 08:41:16;;;;;;;7.68;2.97;;;;;;;20.58;63.99;99472.28;5003564;28;20048;-78
2022/06/11 08:43:50;;;;;;;9.32;2.97;;;;;;;20.56;64.17;99457.38;5008040;28;20029;-78
2022/06/11 08:46:19;;;;;;;9.20;2.78;;;;;;;20.61;63.69;99470.88;5003777;28;20113;-78
2022/06/11 08:48:55;;;;;;;7.95;2.92;;;;;;;20.62;63.05;99476.00;5001168;28;20030;-78
2022/06/11 08:51:33;;;;;;;5.85;2.72;;;;;;;20.68;62.93;99477.53;5005099;28;20266;-77
2022/06/11 08:54:04;;;;;;;4.25;2.53;;;;;;;20.80;62.43;99471.59;5004989;28;20088;-77
2022/06/11 08:56:37;;;;;;;3.00;2.25;;;;;;;20.90;62.94;99466.00;5008957;28;20030;-78
2022/06/11 08:59:26;;;;;;;7.63;2.47;;;;;;;21.07;62.14;99466.22;5002641;28;20053;-77
2022/06/11 09:02:19;;;;;;;12.95;3.38;;;;;;;21.31;61.45;99469.53;4988060;28;21169;-78
2022/06/11 09:05:21;;;;;;;5.40;2.60;;;;;;;21.37;61.61;99465.59;4996815;28;20045;-77
2022/06/11 09:07:55;;;;;;;4.18;2.10;;;;;;;21.53;62.69;99463.38;5008265;28;20041;-78
2022/06/11 09:10:38;;;;;;;9.00;2.47;;;;;;;21.70;60.86;99468.16;4994197;28;20030;-78
2022/06/11 09:13:35;;;;;;;4.30;1.65;;;;;;;21.93;62.01;99461.69;4990602;28;20030;-78
2022/06/11 09:16:19;;;;;;;8.25;2.35;;;;;;;22.04;59.15;99452.19;4993741;28;20026;-77
2022/06/11 09:19:19;;;;;;;3.50;1.75;;;;;;;22.16;61.65;99455.13;4991363;28;20057;-78
2022/06/11 09:21:56;;;;;;;4.07;1.92;;;;;;;22.37;58.17;99462.47;4992973;28;20079;-78
2022/06/11 09:24:55;;;;;;;2.60;1.67;;;;;;;22.75;57.53;99465.59;4992036;28;20132;-78
2022/06/11 09:27:38;;;;;;;3.20;1.65;;;;;;;22.79;57.49;99463.06;4988052;28;20512;-78
2022/06/11 09:30:04;;;;;;;1.75;1.42;;;;;;;22.99;57.05;99457.06;4995528;28;20034;-78
2022/06/11 09:32:35;;;;;;;4.47;1.60;;;;;;;23.10;56.63;99452.94;4997596;28;20038;-78
2022/06/11 09:35:05;;;;;;;5.55;1.65;;;;;;;23.23;57.50;99452.00;5000382;28;20061;-78
2022/06/11 09:37:47;;;;;;;3.20;1.85;;;;;;;23.45;56.16;99451.13;4992835;28;20069;-78
2022/06/11 09:40:34;;;;;;;4.38;1.83;;;;;;;23.38;55.79;99465.22;4991401;28;20172;-78
2022/06/11 09:43:18;;;;;;;4.65;2.00;;;;;;;22.94;56.47;99458.00;4994524;28;20489;-78
2022/06/11 09:45:49;;;;;;;4.90;1.92;;;;;;;22.60;57.17;99467.94;4994039;28;20083;-78
2022/06/11 09:48:34;;;;;;;6.63;2.17;;;;;;;22.38;57.62;99464.09;4988913;28;20079;-78
2022/06/11 09:51:07;;;;;;;2.63;1.70;;;;;;;22.25;57.92;99464.97;4991488;28;20157;-78
2022/06/11 09:53:51;;;;;;;3.97;1.70;;;;;;;22.41;58.33;99459.16;4988343;28;20040;-78
2022/06/11 09:56:34;;;;;;;10.70;2.78;;;;;;;22.39;57.93;99468.41;4992006;28;20041;-78
2022/06/11 09:59:25;;;;;;;7.43;2.75;;;;;;;22.42;58.43;99469.72;4992807;28;20041;-78
2022/06/11 10:01:57;;;;;;;3.63;2.38;;;;;;;22.42;59.00;99472.44;4988751;28;20104;-76
2022/06/11 10:04:30;;;;;;;5.68;2.30;;;;;;;22.39;58.98;99465.69;5002801;28;20125;-77
2022/06/11 10:07:01;;;;;;;5.20;2.53;;;;;;;22.28;58.78;99461.63;4999548;28;20033;-77
2022/06/11 10:09:38;;;;;;;5.30;2.30;;;;;;;22.33;58.79;99475.09;4989555;28;20104;-76
2022/06/11 10:12:11;;;;;;;4.38;2.20;;;;;;;22.47;58.69;99471.50;4997749;28;20108;-76
2022/06/11 10:14:54;;;;;;;3.45;1.60;;;;;;;22.83;57.94;99478.44;5001805;28;20049;-76
2022/06/11 10:17:34;;;;;;;6.32;2.30;;;;;;;22.99;57.97;99478.84;5009983;28;20295;-77
2022/06/11 10:20:12;;;;;;;7.47;1.90;;;;;;;23.09;56.36;99481.28;5003897;28;20030;-76
2022/06/11 10:22:50;;;;;;;2.92;1.45;;;;;;;23.25;55.52;99457.94;4999552;28;20033;-76
2022/06/11 10:25:25;;;;;;;2.63;1.50;;;;;;;23.37;55.59;99485.41;5007626;28;20299;-76
2022/06/11 10:28:03;;;;;;;23.17;6.88;;;;;;;23.36;57.14;99462.00;5004328;28;20088;-77
2022/06/11 10:31:00;;;;;;;7.43;3.15;;;;;;;23.66;55.19;99476.63;5007089;28;20389;-76
2022/06/11 10:33:38;;;;;;;1.20;1.10;;;;;;;23.78;54.58;99468.66;5002528;28;20025;-76
2022/06/11 10:36:21;;;;;;;2.55;1.38;;;;;;;23.73;54.83;99466.06;5004585;28;20022;-77
2022/06/11 10:38:57;;;;;;;2.28;1.50;;;;;;;23.98;53.63;99459.03;5001095;28;20029;-77
2022/06/11 10:41:52;;;;;;;5.90;1.58;;;;;;;23.91;53.38;99466.88;5006242;28;20116;-77
2022/06/11 10:44:43;;;;;;;3.13;1.20;;;;;;;23.94;53.21;99469.75;5003844;28;20136;-77
2022/06/11 10:47:15;;;;;;;3.50;1.30;;;;;;;24.25;55.54;99466.88;5008385;28;20080;-77
2022/06/11 10:49:42;;;;;;;1.90;1.52;;;;;;;24.33;52.22;99461.41;5007956;28;20030;-77
2022/06/11 10:52:46;;;;;;;2.63;1.40;;;;;;;24.82;52.10;99461.97;5004435;28;20091;-77
2022/06/11 10:55:53;;;;;;;1.70;1.20;;;;;;;24.91;51.51;99455.34;5009095;28;20030;-77
2022/06/11 10:58:25;;;;;;;;;;;;;;;24.76;53.22;99455.09;5008211;28;20040;-77
2022/06/11 11:01:09;;;;;;;6.18;1.90;;;;;;;24.80;55.67;99451.38;5005816;28;20007;-77
2022/06/11 11:03:45;;;;;;;2.10;1.25;;;;;;;24.62;53.24;99443.56;5006804;28;20026;-77
2022/06/11 11:06:34;;;;;;;3.75;1.20;;;;;;;24.89;54.50;99454.88;5006906;28;20038;-77
2022/06/11 11:09:21;;;;;;;4.43;1.17;;;;;;;25.10;52.20;99449.47;5009431;28;20034;-77
2022/06/11 11:11:55;;;;;;;4.20;1.52;;;;;;;25.00;53.38;99450.66;4994234;28;20041;-77
2022/06/11 11:14:42;;;;;;;1.98;1.25;;;;;;;24.81;51.97;99455.72;4992269;28;20030;-77
2022/06/11 11:17:21;;;;;;;4.22;2.20;;;;;;;24.59;51.57;99455.94;5011891;28;20473;-77
2022/06/11 11:20:29;;;;;;;1.77;1.48;;;;;;;24.72;52.79;99454.91;4993098;28;20474;-77
2022/06/11 11:22:38;;;;;;;2.38;1.35;;;;;;;24.54;52.66;99459.63;4993667;28;20282;-77
2022/06/11 11:25:16;;;;;;;2.28;1.30;;;;;;;24.16;53.48;99455.19;5005770;28;20080;-77
2022/06/11 11:27:46;;;;;;;2.80;1.52;;;;;;;24.10;53.50;99456.47;4994293;28;20037;-77
2022/06/11 11:30:14;;;;;;;2.42;1.35;;;;;;;23.94;53.56;99453.41;4992488;28;20310;-77
2022/06/11 11:32:42;;;;;;;3.10;1.40;;;;;;;23.82;54.06;99450.53;4995018;28;20068;-77
2022/06/11 11:35:27;;;;;;;3.35;1.58;;;;;;;23.65;54.49;99464.97;4992813;28;20037;-77
2022/06/11 11:38:02;;;;;;;4.00;1.80;;;;;;;23.71;54.72;99469.13;4994405;28;20049;-77
2022/06/11 11:40:47;;;;;;;3.50;1.30;;;;;;;23.67;54.73;99456.44;4995697;28;20079;-77
2022/06/11 11:43:14;;;;;;;2.85;1.63;;;;;;;23.59;54.75;99462.72;5003271;28;20018;-77
2022/06/11 11:46:03;;;;;;;13.70;2.58;;;;;;;23.37;55.72;99460.88;4996299;28;20745;-77
2022/06/11 11:48:28;;;;;;;8.20;2.17;;;;;;;23.70;54.60;99456.59;4995647;28;20045;-77
2022/06/11 11:51:00;;;;;;;3.72;1.92;;;;;;;23.83;54.92;99463.03;4990989;28;20040;-77
2022/06/11 11:53:29;;;;;;;2.03;1.52;;;;;;;24.08;54.67;99445.09;4974440;28;20094;-77
2022/06/11 11:56:04;;;;;;;4.00;1.70;;;;;;;24.51;53.52;99449.34;4988044;28;20108;-77
2022/06/11 11:58:42;;;;;;;2.22;1.58;;;;;;;24.57;53.17;99456.22;4971350;28;20172;-77